createdAt,value
2023-02-01T00:00:07.861Z,8.20
2023-02-01T00:01:12.166Z,8.19
2023-02-01T00:02:34.724Z,8.20
2023-02-01T00:03:36.648Z,8.20
2023-02-01T00:04:45.213Z,8.20
2023-02-01T00:05:57.844Z,8.22
2023-02-01T00:07:06.141Z,8.22
2023-02-01T00:08:09.796Z,8.21
2023-02-01T00:09:18.515Z,8.22
2023-02-01T00:10:20.558Z,8.20
2023-02-01T00:11:24.037Z,8.21
2023-02-01T00:12:25.611Z,8.20
2023-02-01T00:13:30.565Z,8.19
2023-02-01T00:14:39.028Z,8.20
2023-02-01T00:15:41.549Z,8.20
2023-02-01T00:16:43.089Z,8.19
2023-02-01T00:17:45.578Z,8.19
2023-02-01T00:18:48.982Z,8.19
2023-02-01T00:19:51.471Z,8.19
2023-02-01T00:20:53.015Z,8.19
2023-02-01T00:21:55.504Z,8.19
2023-02-01T00:22:57.069Z,8.19
2023-02-01T00:24:01.628Z,8.19
2023-02-01T00:25:03.437Z,8.19
2023-02-01T00:26:08.163Z,8.17
2023-02-01T00:27:09.719Z,8.19
2023-02-01T00:28:13.779Z,8.20
2023-02-01T00:29:25.332Z,8.19
2023-02-01T00:30:38.001Z,8.19
2023-02-01T00:31:39.959Z,8.18
2023-02-01T00:32:50.160Z,8.19
2023-02-01T00:33:52.171Z,8.18
2023-02-01T00:34:56.678Z,8.20
2023-02-01T00:35:59.402Z,8.19
2023-02-01T00:37:02.175Z,8.19
2023-02-01T00:38:03.763Z,8.19
2023-02-01T00:39:07.631Z,8.19
2023-02-01T00:40:10.371Z,8.19
2023-02-01T00:41:14.612Z,8.19
2023-02-01T00:42:16.152Z,8.18
2023-02-01T00:43:18.670Z,8.18
2023-02-01T00:44:20.241Z,8.17
2023-02-01T00:45:22.710Z,8.17
2023-02-01T00:46:24.637Z,8.17
2023-02-01T00:47:27.590Z,8.18
2023-02-01T00:48:30.485Z,8.17
2023-02-01T00:49:42.903Z,8.16
2023-02-01T00:50:54.479Z,8.15
2023-02-01T00:52:07.010Z,8.12
2023-02-01T00:53:09.375Z,8.11
2023-02-01T00:54:16.270Z,8.08
2023-02-01T00:55:17.817Z,8.07
2023-02-01T00:56:20.489Z,8.05
2023-02-01T00:57:21.998Z,8.02
2023-02-01T00:58:24.950Z,8.00
2023-02-01T00:59:26.581Z,7.99
2023-02-01T01:00:29.123Z,7.97
2023-02-01T01:01:30.939Z,7.96
2023-02-01T01:02:33.472Z,7.95
2023-02-01T01:03:37.879Z,7.94
2023-02-01T01:04:40.530Z,7.95
2023-02-01T01:05:43.519Z,7.94
2023-02-01T01:06:55.988Z,7.93
2023-02-01T01:08:03.837Z,7.94
2023-02-01T01:09:09.441Z,7.94
2023-02-01T01:10:12.612Z,7.94
2023-02-01T01:11:18.347Z,7.95
2023-02-01T01:12:20.659Z,7.96
2023-02-01T01:13:23.325Z,7.96
2023-02-01T01:14:25.831Z,7.96
2023-02-01T01:15:27.329Z,7.97
2023-02-01T01:16:31.894Z,7.97
2023-02-01T01:17:33.516Z,7.98
2023-02-01T01:18:36.980Z,7.99
2023-02-01T01:19:39.709Z,7.99
2023-02-01T01:20:42.582Z,8.00
2023-02-01T01:21:45.323Z,8.01
2023-02-01T01:22:46.882Z,8.02
2023-02-01T01:23:49.605Z,8.02
2023-02-01T01:24:52.160Z,8.01
2023-02-01T01:26:09.986Z,8.01
2023-02-01T01:27:24.491Z,8.00
2023-02-01T01:28:32.127Z,8.00
2023-02-01T01:29:34.110Z,7.99
2023-02-01T01:30:43.530Z,7.98
2023-02-01T01:31:46.392Z,7.96
2023-02-01T01:32:50.151Z,7.96
2023-02-01T01:34:04.118Z,7.94
2023-02-01T01:35:11.828Z,7.93
2023-02-01T01:36:23.840Z,7.92
2023-02-01T01:37:25.477Z,7.91
2023-02-01T01:38:27.972Z,7.88
2023-02-01T01:39:30.391Z,7.88
2023-02-01T01:40:33.563Z,7.88
2023-02-01T01:41:36.472Z,7.88
2023-02-01T01:42:39.231Z,7.86
2023-02-01T01:43:57.012Z,7.84
2023-02-01T01:45:05.537Z,7.83
2023-02-01T01:46:07.229Z,7.83
2023-02-01T01:47:11.573Z,7.83
2023-02-01T01:48:18.768Z,7.83
2023-02-01T01:49:25.851Z,7.82
2023-02-01T01:50:31.199Z,7.80
2023-02-01T01:51:42.367Z,7.80
2023-02-01T01:52:56.278Z,7.79
2023-02-01T01:54:11.527Z,7.78
2023-02-01T01:55:19.305Z,7.77
2023-02-01T01:56:21.842Z,7.76
2023-02-01T01:57:28.230Z,7.75
2023-02-01T01:58:34.138Z,7.76
2023-02-01T01:59:37.449Z,7.75
2023-02-01T02:00:40.745Z,7.75
2023-02-01T02:01:42.385Z,7.75
2023-02-01T02:02:48.706Z,7.74
2023-02-01T02:03:52.581Z,7.74
2023-02-01T02:04:55.872Z,7.74
2023-02-01T02:05:59.910Z,7.73
2023-02-01T02:07:06.169Z,7.73
2023-02-01T02:08:07.763Z,7.71
2023-02-01T02:09:10.371Z,7.71
2023-02-01T02:10:13.058Z,7.71
2023-02-01T02:11:19.025Z,7.70
2023-02-01T02:12:21.642Z,7.69
2023-02-01T02:13:38.882Z,7.68
2023-02-01T02:14:41.433Z,7.69
2023-02-01T02:16:01.502Z,7.68
2023-02-01T02:17:32.150Z,7.67
2023-02-01T02:18:50.975Z,7.66
2023-02-01T02:20:26.293Z,7.64
2023-02-01T02:21:43.213Z,7.61
2023-02-01T02:23:23.535Z,7.59
2023-02-01T02:24:55.028Z,7.55
2023-02-01T02:26:16.478Z,7.53
2023-02-01T02:27:28.346Z,7.49
2023-02-01T02:29:15.253Z,7.46
2023-02-01T02:30:52.227Z,7.42
2023-02-01T02:32:27.319Z,7.39
2023-02-01T02:33:53.851Z,7.36
2023-02-01T02:34:59.947Z,7.34
2023-02-01T02:36:08.518Z,7.33
2023-02-01T02:37:21.203Z,7.32
2023-02-01T02:38:31.271Z,7.31
2023-02-01T02:39:53.147Z,7.30
2023-02-01T02:41:11.597Z,7.29
2023-02-01T02:42:45.119Z,7.28
2023-02-01T02:44:15.985Z,7.26
2023-02-01T02:45:43.231Z,7.24
2023-02-01T02:47:10.205Z,7.21
2023-02-01T02:48:19.836Z,7.18
2023-02-01T02:49:30.088Z,7.16
2023-02-01T02:50:55.441Z,7.14
2023-02-01T02:52:20.406Z,7.12
2023-02-01T02:53:47.157Z,7.11
2023-02-01T02:54:52.765Z,7.07
2023-02-01T02:56:13.762Z,7.05
2023-02-01T02:57:38.856Z,7.04
2023-02-01T02:59:06.279Z,7.03
2023-02-01T03:00:39.706Z,7.01
2023-02-01T03:02:02.873Z,7.00
2023-02-01T03:03:23.688Z,6.99
2023-02-01T03:04:27.678Z,7.00
2023-02-01T03:05:33.491Z,7.01
2023-02-01T03:06:36.342Z,7.03
2023-02-01T03:07:56.095Z,7.05
2023-02-01T03:09:00.416Z,7.07
2023-02-01T03:10:06.427Z,7.09
2023-02-01T03:11:11.874Z,7.11
2023-02-01T03:12:34.621Z,7.14
2023-02-01T03:13:42.893Z,7.15
2023-02-01T03:14:49.270Z,7.17
2023-02-01T03:16:00.520Z,7.16
2023-02-01T03:17:16.546Z,7.15
2023-02-01T03:18:25.785Z,7.13
2023-02-01T03:19:37.434Z,7.13
2023-02-01T03:20:42.673Z,7.12
2023-02-01T03:21:50.623Z,7.12
2023-02-01T03:22:53.926Z,7.12
2023-02-01T03:24:02.384Z,7.12
2023-02-01T03:25:08.733Z,7.15
2023-02-01T03:26:15.953Z,7.17
2023-02-01T03:27:23.976Z,7.19
2023-02-01T03:28:29.864Z,7.22
2023-02-01T03:29:38.556Z,7.23
2023-02-01T03:30:44.177Z,7.26
2023-02-01T03:31:45.813Z,7.28
2023-02-01T03:32:59.991Z,7.30
2023-02-01T03:34:02.898Z,7.31
2023-02-01T03:35:15.956Z,7.32
2023-02-01T03:36:25.558Z,7.34
2023-02-01T03:37:29.274Z,7.36
2023-02-01T03:38:36.269Z,7.37
2023-02-01T03:39:43.207Z,7.38
2023-02-01T03:40:51.165Z,7.41
2023-02-01T03:41:56.365Z,7.43
2023-02-01T03:43:02.321Z,7.43
2023-02-01T03:44:12.678Z,7.45
2023-02-01T03:45:20.688Z,7.46
2023-02-01T03:46:28.936Z,7.47
2023-02-01T03:47:36.876Z,7.49
2023-02-01T03:48:40.352Z,7.51
2023-02-01T03:49:45.637Z,7.51
2023-02-01T03:50:53.209Z,7.51
2023-02-01T03:51:58.728Z,7.52
2023-02-01T03:53:15.695Z,7.53
2023-02-01T03:54:19.901Z,7.54
2023-02-01T03:55:24.676Z,7.54
2023-02-01T03:56:29.753Z,7.55
2023-02-01T03:57:36.295Z,7.57
2023-02-01T03:58:39.110Z,7.58
2023-02-01T03:59:41.334Z,7.57
2023-02-01T04:00:47.966Z,7.59
2023-02-01T04:01:49.786Z,7.59
2023-02-01T04:02:53.266Z,7.59
2023-02-01T04:03:55.080Z,7.59
2023-02-01T04:04:57.566Z,7.62
2023-02-01T04:06:00.477Z,7.62
2023-02-01T04:07:03.090Z,7.62
2023-02-01T04:08:05.986Z,7.61
2023-02-01T04:09:08.489Z,7.60
2023-02-01T04:10:12.944Z,7.60
2023-02-01T04:11:15.555Z,7.59
2023-02-01T04:12:18.144Z,7.59
2023-02-01T04:13:19.989Z,7.58
2023-02-01T04:14:32.533Z,7.57
2023-02-01T04:15:35.615Z,7.56
2023-02-01T04:16:38.249Z,7.54
2023-02-01T04:17:39.847Z,7.53
2023-02-01T04:18:42.326Z,7.50
2023-02-01T04:19:43.837Z,7.49
2023-02-01T04:20:46.805Z,7.45
2023-02-01T04:21:49.979Z,7.42
2023-02-01T04:22:52.484Z,7.39
2023-02-01T04:23:54.622Z,7.36
2023-02-01T04:24:57.187Z,7.34
2023-02-01T04:26:01.293Z,7.32
2023-02-01T04:27:14.103Z,7.29
2023-02-01T04:28:25.651Z,7.27
2023-02-01T04:29:28.923Z,7.24
2023-02-01T04:30:40.521Z,7.22
2023-02-01T04:31:47.513Z,7.20
2023-02-01T04:32:49.133Z,7.17
2023-02-01T04:33:58.600Z,7.17
2023-02-01T04:35:08.600Z,7.14
2023-02-01T04:36:11.857Z,7.13
2023-02-01T04:37:15.700Z,7.12
2023-02-01T04:38:17.722Z,7.11
2023-02-01T04:39:20.952Z,7.09
2023-02-01T04:40:22.846Z,7.10
2023-02-01T04:41:25.496Z,7.09
2023-02-01T04:42:27.159Z,7.08
2023-02-01T04:43:29.672Z,7.07
2023-02-01T04:44:31.403Z,7.08
2023-02-01T04:45:33.964Z,7.06
2023-02-01T04:46:36.539Z,7.06
2023-02-01T04:47:39.315Z,7.05
2023-02-01T04:48:51.800Z,7.05
2023-02-01T04:50:03.748Z,7.04
2023-02-01T04:51:10.772Z,7.04
2023-02-01T04:52:13.632Z,7.04
2023-02-01T04:53:16.841Z,7.03
2023-02-01T04:54:18.614Z,7.04
2023-02-01T04:55:21.124Z,7.04
2023-02-01T04:56:24.025Z,7.04
2023-02-01T04:57:25.840Z,7.06
2023-02-01T04:58:28.344Z,7.05
2023-02-01T04:59:29.869Z,7.06
2023-02-01T05:00:32.449Z,7.05
2023-02-01T05:01:34.062Z,7.04
2023-02-01T05:02:36.864Z,7.05
2023-02-01T05:03:38.438Z,7.05
2023-02-01T05:04:40.986Z,7.06
2023-02-01T05:05:42.549Z,7.06
2023-02-01T05:06:46.413Z,7.08
2023-02-01T05:07:49.276Z,7.08
2023-02-01T05:08:52.402Z,7.09
2023-02-01T05:10:04.817Z,7.10
2023-02-01T05:11:31.296Z,7.12
2023-02-01T05:13:02.292Z,7.11
2023-02-01T05:14:06.653Z,7.09
2023-02-01T05:15:09.041Z,7.06
2023-02-01T05:16:11.638Z,7.05
2023-02-01T05:17:13.218Z,7.03
2023-02-01T05:18:15.700Z,7.02
2023-02-01T05:19:17.400Z,7.02
2023-02-01T05:20:20.346Z,7.00
2023-02-01T05:21:22.150Z,7.00
2023-02-01T05:22:24.711Z,6.98
2023-02-01T05:23:31.797Z,6.99
2023-02-01T05:24:33.469Z,6.96
2023-02-01T05:25:36.328Z,6.96
2023-02-01T05:26:38.241Z,6.95
2023-02-01T05:27:40.887Z,6.94
2023-02-01T05:28:42.388Z,6.94
2023-02-01T05:29:44.884Z,6.95
2023-02-01T05:30:47.267Z,6.95
2023-02-01T05:31:50.827Z,6.94
2023-02-01T05:33:02.430Z,6.93
2023-02-01T05:34:05.864Z,6.93
2023-02-01T05:35:09.510Z,6.92
2023-02-01T05:36:12.054Z,6.92
2023-02-01T05:37:13.613Z,6.92
2023-02-01T05:38:16.476Z,6.92
2023-02-01T05:39:19.917Z,6.92
2023-02-01T05:40:22.818Z,6.93
2023-02-01T05:41:24.578Z,6.92
2023-02-01T05:42:27.095Z,6.91
2023-02-01T05:43:28.882Z,6.91
2023-02-01T05:44:31.386Z,6.90
2023-02-01T05:45:32.950Z,6.90
2023-02-01T05:46:35.973Z,6.90
2023-02-01T05:47:37.968Z,6.90
2023-02-01T05:48:40.969Z,6.89
2023-02-01T05:49:43.560Z,6.88
2023-02-01T05:50:47.744Z,6.89
2023-02-01T05:51:50.688Z,6.87
2023-02-01T05:52:54.231Z,6.88
2023-02-01T05:53:57.268Z,6.87
2023-02-01T05:55:00.398Z,6.87
2023-02-01T05:56:03.049Z,6.85
2023-02-01T05:57:04.764Z,6.85
2023-02-01T05:58:07.653Z,6.84
2023-02-01T05:59:10.561Z,6.82
2023-02-01T06:00:14.302Z,6.82
2023-02-01T06:01:21.528Z,6.81
2023-02-01T06:02:25.019Z,6.79
2023-02-01T06:03:28.342Z,6.79
2023-02-01T06:04:29.930Z,6.79
2023-02-01T06:05:32.600Z,6.77
2023-02-01T06:06:34.197Z,6.77
2023-02-01T06:07:36.736Z,6.77
2023-02-01T06:08:41.046Z,6.77
2023-02-01T06:09:43.590Z,6.77
2023-02-01T06:10:59.619Z,6.77
2023-02-01T06:12:12.166Z,6.76
2023-02-01T06:13:15.359Z,6.77
2023-02-01T06:14:21.041Z,6.78
2023-02-01T06:15:22.896Z,6.78
2023-02-01T06:16:28.260Z,6.78
2023-02-01T06:17:31.271Z,6.81
2023-02-01T06:18:34.437Z,6.84
2023-02-01T06:19:49.227Z,6.88
2023-02-01T06:20:54.328Z,6.92
2023-02-01T06:21:56.822Z,6.95
2023-02-01T06:22:58.382Z,6.96
2023-02-01T06:24:01.161Z,7.00
2023-02-01T06:25:03.224Z,7.03
2023-02-01T06:26:08.916Z,7.05
2023-02-01T06:27:10.494Z,7.08
2023-02-01T06:28:12.991Z,7.10
2023-02-01T06:29:14.823Z,7.11
2023-02-01T06:30:17.756Z,7.13
2023-02-01T06:31:19.429Z,7.14
2023-02-01T06:32:21.960Z,7.15
2023-02-01T06:33:23.546Z,7.17
2023-02-01T06:34:30.277Z,7.17
2023-02-01T06:35:33.475Z,7.19
2023-02-01T06:36:46.020Z,7.20
2023-02-01T06:37:49.338Z,7.21
2023-02-01T06:38:57.416Z,7.22
2023-02-01T06:39:59.561Z,7.24
2023-02-01T06:41:03.177Z,7.25
2023-02-01T06:42:06.155Z,7.26
2023-02-01T06:43:08.664Z,7.28
2023-02-01T06:44:10.205Z,7.29
2023-02-01T06:45:12.876Z,7.31
2023-02-01T06:46:14.879Z,7.32
2023-02-01T06:47:17.433Z,7.33
2023-02-01T06:48:20.230Z,7.34
2023-02-01T06:49:22.900Z,7.36
2023-02-01T06:50:24.831Z,7.37
2023-02-01T06:51:30.132Z,7.38
2023-02-01T06:52:31.712Z,7.38
2023-02-01T06:53:34.502Z,7.40
2023-02-01T06:54:39.203Z,7.41
2023-02-01T06:55:54.731Z,7.40
2023-02-01T06:57:08.508Z,7.42
2023-02-01T06:58:10.952Z,7.41
2023-02-01T06:59:15.029Z,7.43
2023-02-01T07:00:19.004Z,7.44
2023-02-01T07:01:24.524Z,7.45
2023-02-01T07:02:26.257Z,7.47
2023-02-01T07:03:28.777Z,7.47
2023-02-01T07:04:32.117Z,7.48
2023-02-01T07:05:33.680Z,7.48
2023-02-01T07:06:36.261Z,7.49
2023-02-01T07:07:37.788Z,7.49
2023-02-01T07:08:40.581Z,7.50
2023-02-01T07:09:43.065Z,7.50
2023-02-01T07:10:44.610Z,7.52
2023-02-01T07:11:47.205Z,7.52
2023-02-01T07:12:50.097Z,7.52
2023-02-01T07:13:53.290Z,7.53
2023-02-01T07:14:55.027Z,7.54
2023-02-01T07:16:02.037Z,7.54
2023-02-01T07:17:05.409Z,7.54
2023-02-01T07:18:07.978Z,7.55
2023-02-01T07:19:09.675Z,7.55
2023-02-01T07:20:13.006Z,7.54
2023-02-01T07:21:15.294Z,7.56
2023-02-01T07:22:18.551Z,7.57
2023-02-01T07:23:21.080Z,7.58
2023-02-01T07:24:24.640Z,7.58
2023-02-01T07:25:28.331Z,7.58
2023-02-01T07:26:35.775Z,7.60
2023-02-01T07:27:38.951Z,7.61
2023-02-01T07:28:49.907Z,7.61
2023-02-01T07:29:51.606Z,7.61
2023-02-01T07:30:54.250Z,7.62
2023-02-01T07:31:55.822Z,7.62
2023-02-01T07:33:01.854Z,7.63
2023-02-01T07:34:04.369Z,7.65
2023-02-01T07:35:06.646Z,7.65
2023-02-01T07:36:14.229Z,7.65
2023-02-01T07:37:16.741Z,7.64
2023-02-01T07:38:19.019Z,7.65
2023-02-01T07:39:21.658Z,7.63
2023-02-01T07:40:29.291Z,7.63
2023-02-01T07:41:31.788Z,7.65
2023-02-01T07:42:35.134Z,7.63
2023-02-01T07:43:49.082Z,7.64
2023-02-01T07:44:51.655Z,7.64
2023-02-01T07:45:55.179Z,7.65
2023-02-01T07:46:57.799Z,7.65
2023-02-01T07:47:59.318Z,7.66
2023-02-01T07:49:01.896Z,7.67
2023-02-01T07:50:03.719Z,7.69
2023-02-01T07:51:08.034Z,7.69
2023-02-01T07:52:12.113Z,7.71
2023-02-01T07:53:13.713Z,7.72
2023-02-01T07:54:16.216Z,7.73
2023-02-01T07:55:17.770Z,7.75
2023-02-01T07:56:23.371Z,7.75
2023-02-01T07:57:24.984Z,7.76
2023-02-01T07:58:28.125Z,7.77
2023-02-01T07:59:31.965Z,7.78
2023-02-01T08:00:52.217Z,7.78
2023-02-01T08:01:54.052Z,7.78
2023-02-01T08:02:56.638Z,7.78
2023-02-01T08:04:05.396Z,7.77
2023-02-01T08:05:08.613Z,7.77
2023-02-01T08:06:12.065Z,7.77
2023-02-01T08:07:14.573Z,7.77
2023-02-01T08:08:17.085Z,7.77
2023-02-01T08:09:20.539Z,7.78
2023-02-01T08:10:22.349Z,7.77
2023-02-01T08:11:26.498Z,7.78
2023-02-01T08:12:29.031Z,7.78
2023-02-01T08:13:32.475Z,7.78
2023-02-01T08:14:36.540Z,7.78
2023-02-01T08:15:39.135Z,7.80
2023-02-01T08:16:41.758Z,7.80
2023-02-01T08:17:47.976Z,7.81
2023-02-01T08:18:50.830Z,7.81
2023-02-01T08:19:53.356Z,7.82
2023-02-01T08:20:55.096Z,7.82
2023-02-01T08:21:57.602Z,7.82
2023-02-01T08:22:59.181Z,7.82
2023-02-01T08:24:01.850Z,7.82
2023-02-01T08:25:07.473Z,7.82
2023-02-01T08:26:16.193Z,7.83
2023-02-01T08:27:19.572Z,7.82
2023-02-01T08:28:22.374Z,7.83
2023-02-01T08:29:25.127Z,7.84
2023-02-01T08:30:28.467Z,7.85
2023-02-01T08:31:31.739Z,7.86
2023-02-01T08:32:34.633Z,7.86
2023-02-01T08:33:37.892Z,7.88
2023-02-01T08:34:40.437Z,7.88
2023-02-01T08:35:44.125Z,7.90
2023-02-01T08:36:46.881Z,7.92
2023-02-01T08:37:50.368Z,7.96
2023-02-01T08:38:52.955Z,7.95
2023-02-01T08:39:55.482Z,7.95
2023-02-01T08:40:57.239Z,7.98
2023-02-01T08:42:22.899Z,7.99
2023-02-01T08:43:25.557Z,7.98
2023-02-01T08:44:27.540Z,8.00
2023-02-01T08:45:35.248Z,8.00
2023-02-01T08:46:36.926Z,8.00
2023-02-01T08:47:40.082Z,8.00
2023-02-01T08:48:41.746Z,8.00
2023-02-01T08:49:44.269Z,8.00
2023-02-01T08:50:46.771Z,8.02
2023-02-01T08:51:49.309Z,8.01
2023-02-01T08:52:52.129Z,8.04
2023-02-01T08:53:54.670Z,8.04
2023-02-01T08:54:56.199Z,8.05
2023-02-01T08:55:58.803Z,8.06
2023-02-01T08:57:00.467Z,8.07
2023-02-01T08:58:03.138Z,8.09
2023-02-01T08:59:05.643Z,8.10
2023-02-01T09:00:14.389Z,8.11
2023-02-01T09:01:34.162Z,8.11
2023-02-01T09:02:46.388Z,8.13
2023-02-01T09:03:49.121Z,8.13
2023-02-01T09:04:50.731Z,8.15
2023-02-01T09:06:03.834Z,8.17
2023-02-01T09:07:07.245Z,8.19
2023-02-01T09:08:10.064Z,8.20
2023-02-01T09:09:11.866Z,8.21
2023-02-01T09:10:18.947Z,8.21
2023-02-01T09:11:33.557Z,8.22
2023-02-01T09:12:37.199Z,8.23
2023-02-01T09:13:39.712Z,8.23
2023-02-01T09:14:41.377Z,8.23
2023-02-01T09:15:44.367Z,8.24
2023-02-01T09:16:48.603Z,8.27
2023-02-01T09:17:50.267Z,8.25
2023-02-01T09:18:56.257Z,8.24
2023-02-01T09:20:05.482Z,8.23
2023-02-01T09:21:07.889Z,8.23
2023-02-01T09:22:10.415Z,8.22
2023-02-01T09:23:12.331Z,8.19
2023-02-01T09:24:15.311Z,8.20
2023-02-01T09:25:18.409Z,8.20
2023-02-01T09:26:26.495Z,8.22
2023-02-01T09:27:33.771Z,8.23
2023-02-01T09:28:35.619Z,8.25
2023-02-01T09:29:50.755Z,8.28
2023-02-01T09:31:03.756Z,8.29
2023-02-01T09:32:17.796Z,8.31
2023-02-01T09:33:22.218Z,8.31
2023-02-01T09:34:23.997Z,8.32
2023-02-01T09:35:26.547Z,8.33
2023-02-01T09:36:31.347Z,8.32
2023-02-01T09:37:35.085Z,8.33
2023-02-01T09:38:41.676Z,8.35
2023-02-01T09:39:44.648Z,8.36
2023-02-01T09:40:52.196Z,8.40
2023-02-01T09:42:04.245Z,8.43
2023-02-01T09:43:21.841Z,8.45
2023-02-01T09:44:44.079Z,8.48
2023-02-01T09:46:04.282Z,8.48
2023-02-01T09:47:13.842Z,8.47
2023-02-01T09:48:22.253Z,8.46
2023-02-01T09:49:30.155Z,8.45
2023-02-01T09:50:38.229Z,8.47
2023-02-01T09:51:54.415Z,8.45
2023-02-01T09:53:03.965Z,8.44
2023-02-01T09:54:10.826Z,8.44
2023-02-01T09:55:20.252Z,8.46
2023-02-01T09:56:26.592Z,8.45
2023-02-01T09:57:42.230Z,8.48
2023-02-01T09:58:49.365Z,8.49
2023-02-01T09:59:58.500Z,8.49
2023-02-01T10:01:04.895Z,8.51
2023-02-01T10:02:15.125Z,8.52
2023-02-01T10:03:18.123Z,8.54
2023-02-01T10:04:21.176Z,8.55
2023-02-01T10:05:51.132Z,8.58
2023-02-01T10:07:15.798Z,8.58
2023-02-01T10:08:39.033Z,8.59
2023-02-01T10:10:03.198Z,8.59
2023-02-01T10:11:14.299Z,8.61
2023-02-01T10:12:49.093Z,8.62
2023-02-01T10:14:03.746Z,8.62
2023-02-01T10:15:28.068Z,8.64
2023-02-01T10:16:44.531Z,8.65
2023-02-01T10:18:00.023Z,8.67
2023-02-01T10:19:22.794Z,8.68
2023-02-01T10:20:31.888Z,8.69
2023-02-01T10:21:47.512Z,8.70
2023-02-01T10:23:19.533Z,8.72
2023-02-01T10:24:37.894Z,8.78
2023-02-01T10:25:53.210Z,8.82
2023-02-01T10:27:03.497Z,8.84
2023-02-01T10:28:06.434Z,8.85
2023-02-01T10:29:17.759Z,8.86
2023-02-01T10:30:23.538Z,8.90
2023-02-01T10:31:33.039Z,8.93
2023-02-01T10:32:36.943Z,8.95
2023-02-01T10:33:42.816Z,8.96
2023-02-01T10:34:51.915Z,8.95
2023-02-01T10:35:58.418Z,8.98
2023-02-01T10:37:10.618Z,8.97
2023-02-01T10:38:23.008Z,8.98
2023-02-01T10:39:26.487Z,9.00
2023-02-01T10:40:34.084Z,8.99
2023-02-01T10:41:38.533Z,8.99
2023-02-01T10:42:42.015Z,9.00
2023-02-01T10:43:46.661Z,8.99
2023-02-01T10:44:49.915Z,9.01
2023-02-01T10:45:51.451Z,9.00
2023-02-01T10:46:54.128Z,9.01
2023-02-01T10:47:59.329Z,9.03
2023-02-01T10:49:04.712Z,9.03
2023-02-01T10:50:18.461Z,9.00
2023-02-01T10:51:25.877Z,8.97
2023-02-01T10:52:37.061Z,8.95
2023-02-01T10:53:46.811Z,8.95
2023-02-01T10:54:50.354Z,8.97
2023-02-01T10:55:53.056Z,8.96
2023-02-01T10:56:55.582Z,8.98
2023-02-01T10:57:58.659Z,8.98
2023-02-01T10:59:06.677Z,8.99
2023-02-01T11:00:21.818Z,9.00
2023-02-01T11:01:37.191Z,8.99
2023-02-01T11:02:39.826Z,8.98
2023-02-01T11:03:44.168Z,8.99
2023-02-01T11:04:47.097Z,9.01
2023-02-01T11:05:50.528Z,9.03
2023-02-01T11:06:56.685Z,9.06
2023-02-01T11:08:01.294Z,9.07
2023-02-01T11:09:17.771Z,9.09
2023-02-01T11:10:38.805Z,9.10
2023-02-01T11:11:56.407Z,9.10
2023-02-01T11:13:04.021Z,9.08
2023-02-01T11:14:16.748Z,9.08
2023-02-01T11:15:22.595Z,9.07
2023-02-01T11:16:36.469Z,9.07
2023-02-01T11:17:44.088Z,9.06
2023-02-01T11:18:47.707Z,9.05
2023-02-01T11:19:58.852Z,9.05
2023-02-01T11:21:03.398Z,9.06
2023-02-01T11:22:06.239Z,9.05
2023-02-01T11:23:15.950Z,9.06
2023-02-01T11:24:24.794Z,9.04
2023-02-01T11:25:27.316Z,9.03
2023-02-01T11:26:30.258Z,9.04
2023-02-01T11:27:34.748Z,9.06
2023-02-01T11:28:46.583Z,9.06
2023-02-01T11:29:51.948Z,9.07
2023-02-01T11:30:58.165Z,9.07
2023-02-01T11:32:00.882Z,9.06
2023-02-01T11:33:07.223Z,9.07
2023-02-01T11:34:16.185Z,9.07
2023-02-01T11:35:21.206Z,9.08
2023-02-01T11:36:28.500Z,9.10
2023-02-01T11:37:34.188Z,9.11
2023-02-01T11:38:37.319Z,9.14
2023-02-01T11:39:39.913Z,9.15
2023-02-01T11:40:41.665Z,9.17
2023-02-01T11:41:46.448Z,9.17
2023-02-01T11:42:57.465Z,9.16
2023-02-01T11:44:02.124Z,9.14
2023-02-01T11:45:21.247Z,9.14
2023-02-01T11:46:30.159Z,9.14
2023-02-01T11:47:41.269Z,9.14
2023-02-01T11:48:44.470Z,9.15
2023-02-01T11:49:46.279Z,9.17
2023-02-01T11:50:56.241Z,9.20
2023-02-01T11:52:13.283Z,9.21
2023-02-01T11:53:27.250Z,9.22
2023-02-01T11:54:42.561Z,9.23
2023-02-01T11:55:56.758Z,9.23
2023-02-01T11:57:21.164Z,9.22
2023-02-01T11:58:43.411Z,9.23
2023-02-01T12:00:04.174Z,9.23
2023-02-01T12:01:23.668Z,9.23
2023-02-01T12:02:52.935Z,9.27
2023-02-01T12:04:34.060Z,9.27
2023-02-01T12:05:44.806Z,9.29
2023-02-01T12:06:52.131Z,9.29
2023-02-01T12:08:18.553Z,9.29
2023-02-01T12:09:40.276Z,9.31
2023-02-01T12:10:54.622Z,9.31
2023-02-01T12:12:05.656Z,9.31
2023-02-01T12:13:21.815Z,9.31
2023-02-01T12:14:42.155Z,9.33
2023-02-01T12:15:58.182Z,9.34
2023-02-01T12:17:20.407Z,9.34
2023-02-01T12:18:42.683Z,9.36
2023-02-01T12:20:04.340Z,9.35
2023-02-01T12:21:20.021Z,9.34
2023-02-01T12:22:38.262Z,9.34
2023-02-01T12:23:54.885Z,9.31
2023-02-01T12:25:22.916Z,9.29
2023-02-01T12:26:43.052Z,9.26
2023-02-01T12:28:18.333Z,9.21
2023-02-01T12:29:31.908Z,9.18
2023-02-01T12:30:51.003Z,9.18
2023-02-01T12:32:07.171Z,9.18
2023-02-01T12:33:20.069Z,9.18
2023-02-01T12:34:34.687Z,9.18
2023-02-01T12:35:50.675Z,9.16
2023-02-01T12:37:02.041Z,9.16
2023-02-01T12:38:20.014Z,9.15
2023-02-01T12:39:31.911Z,9.13
2023-02-01T12:40:48.805Z,9.13
2023-02-01T12:41:58.187Z,9.15
2023-02-01T12:43:05.224Z,9.16
2023-02-01T12:44:15.080Z,9.17
2023-02-01T12:45:27.023Z,9.19
2023-02-01T12:46:34.368Z,9.18
2023-02-01T12:47:41.819Z,9.18
2023-02-01T12:48:58.631Z,9.17
2023-02-01T12:50:05.199Z,9.17
2023-02-01T12:51:12.208Z,9.17
2023-02-01T12:52:18.757Z,9.16
2023-02-01T12:53:26.382Z,9.15
2023-02-01T12:54:38.251Z,9.16
2023-02-01T12:55:50.624Z,9.16
2023-02-01T12:56:58.278Z,9.16
2023-02-01T12:58:08.751Z,9.17
2023-02-01T12:59:18.837Z,9.17
2023-02-01T13:00:30.209Z,9.17
2023-02-01T13:01:36.812Z,9.19
2023-02-01T13:02:44.447Z,9.19
2023-02-01T13:03:56.023Z,9.19
2023-02-01T13:05:05.826Z,9.19
2023-02-01T13:06:14.948Z,9.18
2023-02-01T13:07:32.316Z,9.19
2023-02-01T13:08:42.165Z,9.18
2023-02-01T13:09:51.527Z,9.19
2023-02-01T13:11:01.448Z,9.20
2023-02-01T13:12:13.522Z,9.20
2023-02-01T13:13:21.566Z,9.22
2023-02-01T13:14:34.706Z,9.23
2023-02-01T13:15:42.644Z,9.23
2023-02-01T13:16:46.622Z,9.23
2023-02-01T13:17:51.420Z,9.24
2023-02-01T13:18:56.783Z,9.25
2023-02-01T13:20:04.568Z,9.24
2023-02-01T13:21:10.549Z,9.26
2023-02-01T13:22:26.011Z,9.26
2023-02-01T13:23:31.282Z,9.26
2023-02-01T13:24:39.477Z,9.26
2023-02-01T13:25:49.011Z,9.25
2023-02-01T13:26:54.274Z,9.24
2023-02-01T13:28:00.765Z,9.25
2023-02-01T13:29:07.864Z,9.25
2023-02-01T13:30:20.793Z,9.25
2023-02-01T13:31:45.694Z,9.25
2023-02-01T13:33:53.643Z,9.26
2023-02-01T13:35:17.266Z,9.26
2023-02-01T13:36:54.144Z,9.25
2023-02-01T13:38:22.777Z,9.24
2023-02-01T13:39:59.875Z,9.23
2023-02-01T13:41:22.486Z,9.23
2023-02-01T13:42:28.613Z,9.23
2023-02-01T13:43:33.624Z,9.23
2023-02-01T13:44:42.479Z,9.24
2023-02-01T13:45:49.866Z,9.23
2023-02-01T13:47:00.720Z,9.25
2023-02-01T13:48:07.791Z,9.25
2023-02-01T13:49:21.714Z,9.25
2023-02-01T13:50:28.470Z,9.27
2023-02-01T13:51:36.345Z,9.28
2023-02-01T13:52:41.593Z,9.29
2023-02-01T13:53:48.773Z,9.30
2023-02-01T13:55:04.250Z,9.31
2023-02-01T13:56:15.245Z,9.33
2023-02-01T13:57:35.767Z,9.34
2023-02-01T13:58:40.133Z,9.35
2023-02-01T13:59:52.220Z,9.36
2023-02-01T14:01:34.966Z,9.36
2023-02-01T14:02:48.133Z,9.35
2023-02-01T14:03:52.803Z,9.36
2023-02-01T14:04:54.382Z,9.38
2023-02-01T14:06:40.774Z,9.40
2023-02-01T14:08:11.166Z,9.40
2023-02-01T14:09:21.061Z,9.42
2023-02-01T14:10:48.950Z,9.45
2023-02-01T14:11:59.504Z,9.47
2023-02-01T14:13:06.726Z,9.47
2023-02-01T14:14:46.236Z,9.50
2023-02-01T14:16:16.548Z,9.50
2023-02-01T14:17:38.144Z,9.50
2023-02-01T14:19:01.148Z,9.51
2023-02-01T14:20:46.439Z,9.51
2023-02-01T14:21:52.514Z,9.51
2023-02-01T14:23:02.677Z,9.52
2023-02-01T14:24:23.386Z,9.51
2023-02-01T14:25:25.496Z,9.50
2023-02-01T14:26:42.825Z,9.50
2023-02-01T14:27:45.994Z,9.49
2023-02-01T14:29:04.268Z,9.49
2023-02-01T14:30:15.359Z,9.48
2023-02-01T14:31:36.126Z,9.50
2023-02-01T14:32:41.887Z,9.50
2023-02-01T14:33:44.169Z,9.50
2023-02-01T14:34:55.323Z,9.50
2023-02-01T14:36:08.419Z,9.51
2023-02-01T14:37:25.335Z,9.53
2023-02-01T14:38:27.021Z,9.52
2023-02-01T14:39:35.500Z,9.54
2023-02-01T14:40:38.380Z,9.55
2023-02-01T14:41:43.538Z,9.57
2023-02-01T14:42:49.630Z,9.59
2023-02-01T14:43:52.705Z,9.60
2023-02-01T14:44:59.110Z,9.61
2023-02-01T14:46:02.498Z,9.63
2023-02-01T14:47:32.948Z,9.64
2023-02-01T14:48:47.088Z,9.65
2023-02-01T14:49:56.176Z,9.66
2023-02-01T14:51:00.804Z,9.66
2023-02-01T14:52:19.081Z,9.67
2023-02-01T14:53:27.740Z,9.66
2023-02-01T14:54:30.041Z,9.69
2023-02-01T14:55:37.657Z,9.68
2023-02-01T14:56:40.697Z,9.68
2023-02-01T14:57:44.992Z,9.69
2023-02-01T14:58:54.372Z,9.68
2023-02-01T15:00:09.658Z,9.69
2023-02-01T15:01:20.205Z,9.69
2023-02-01T15:02:26.355Z,9.68
2023-02-01T15:03:43.832Z,9.67
2023-02-01T15:04:46.585Z,9.68
2023-02-01T15:05:56.840Z,9.67